Time;durP1;ratioP1;P1;durP2;ratioP2;P2;SDS_P1;SDS_P2;PMS_P1;PMS_P2;Temp;Humidity;BMP_temperature;BMP_pressure;BME280_temperature;BME280_humidity;BME280_pressure;Samples;Min_cycle;Max_cycle;Signal;HPM_P1;HPM_P2
2022/04/22 00:01:08;;;;;;;;;;;7.50;99.90;;;;;;5061547;28;19926;-81
2022/04/22 00:03:34;;;;;;;;;;;7.50;99.90;;;;;;5079171;28;19912;-82
2022/04/22 00:06:01;;;;;;;;;;;7.50;99.90;;;;;;5060250;28;19916;-82
2022/04/22 00:08:26;;;;;;;;;;;7.40;99.90;;;;;;5062620;28;19920;-81
2022/04/22 00:13:36;;;;;;;;;;;7.40;99.90;;;;;;5069561;28;19947;-82
2022/04/22 00:16:02;;;;;;;;;;;7.40;99.90;;;;;;5059554;28;19921;-83
2022/04/22 00:18:28;;;;;;;;;;;7.30;99.90;;;;;;5084138;28;19920;-81
2022/04/22 00:20:53;;;;;;;;;;;7.30;99.90;;;;;;5080491;28;19913;-82
2022/04/22 00:23:19;;;;;;;;;;;7.30;99.90;;;;;;5058294;28;19924;-81
2022/04/22 00:25:45;;;;;;;;;;;7.20;99.90;;;;;;5061934;28;19916;-82
2022/04/22 00:28:10;;;;;;;;;;;7.20;99.90;;;;;;5074678;28;19931;-82
2022/04/22 00:30:36;;;;;;;;;;;7.20;99.90;;;;;;5046695;28;20501;-82
2022/04/22 00:33:01;;;;;;;;;;;7.20;99.90;;;;;;5057346;28;19966;-82
2022/04/22 00:35:27;;;;;;;;;;;7.10;99.90;;;;;;5045991;28;20020;-81
2022/04/22 00:37:52;;;;;;;;;;;7.10;99.90;;;;;;5059112;28;19919;-82
2022/04/22 00:40:18;;;;;;;;;;;7.10;99.90;;;;;;5048385;28;19921;-81
2022/04/22 00:42:43;;;;;;;;;;;7.00;99.90;;;;;;5042195;28;20415;-82
2022/04/22 00:45:09;;;;;;;;;;;7.00;99.90;;;;;;5057621;28;19923;-82
2022/04/22 00:47:35;;;;;;;;;;;7.00;99.90;;;;;;5052127;28;20394;-82
2022/04/22 00:50:00;;;;;;;;;;;7.00;99.90;;;;;;5037411;28;19916;-82
2022/04/22 00:52:27;;;;;;;;;;;6.90;99.90;;;;;;5045674;28;19920;-81
2022/04/22 00:54:52;;;;;;;;;;;6.90;99.90;;;;;;5043232;28;20321;-82
2022/04/22 00:57:19;;;;;;;;;;;6.90;99.90;;;;;;5038268;28;20899;-82
2022/04/22 00:59:45;;;;;;;;;;;6.80;99.90;;;;;;5072348;28;19912;-81
2022/04/22 01:02:11;;;;;;;;;;;6.80;99.90;;;;;;5056848;28;19947;-83
2022/04/22 01:10:07;;;;;;;;;;;6.70;99.90;;;;;;5056082;28;19955;-83
2022/04/22 01:12:33;;;;;;;;;;;6.70;99.90;;;;;;5056822;28;20329;-82
2022/04/22 01:14:58;;;;;;;;;;;6.60;99.90;;;;;;5054969;28;19920;-82
2022/04/22 01:17:25;;;;;;;;;;;6.60;99.90;;;;;;5057849;28;19947;-83
2022/04/22 01:19:50;;;;;;;;;;;6.70;99.90;;;;;;5075424;28;20394;-82
2022/04/22 01:22:16;;;;;;;;;;;6.70;99.90;;;;;;5058652;28;19924;-82
2022/04/22 01:24:42;;;;;;;;;;;6.60;99.90;;;;;;5053664;28;20379;-83
2022/04/22 01:27:10;;;;;;;;;;;6.60;99.90;;;;;;5075249;28;19912;-83
2022/04/22 01:29:35;;;;;;;;;;;6.60;99.90;;;;;;5043387;28;19913;-83
2022/04/22 01:32:01;;;;;;;;;;;6.60;99.90;;;;;;5039475;28;19923;-82
2022/04/22 01:34:27;;;;;;;;;;;6.50;99.90;;;;;;5055790;28;19921;-83
2022/04/22 01:36:52;;;;;;;;;;;6.50;99.90;;;;;;5059302;28;20367;-83
2022/04/22 01:39:18;;;;;;;;;;;6.40;99.90;;;;;;5075431;28;20007;-83
2022/04/22 01:41:43;;;;;;;;;;;6.40;99.90;;;;;;5075880;28;19913;-83
2022/04/22 01:44:09;;;;;;;;;;;6.40;99.90;;;;;;5060950;28;19912;-83
2022/04/22 01:46:35;;;;;;;;;;;6.40;99.90;;;;;;5078746;28;19919;-83
2022/04/22 01:49:02;;;;;;;;;;;6.40;99.90;;;;;;5056546;28;19962;-82
2022/04/22 01:51:28;;;;;;;;;;;6.40;99.90;;;;;;5073745;28;19977;-82
2022/04/22 01:53:54;;;;;;;;;;;6.30;99.90;;;;;;5067979;28;19956;-82
2022/04/22 01:56:19;;;;;;;;;;;6.30;99.90;;;;;;5036368;28;19923;-82
2022/04/22 01:58:45;;;;;;;;;;;6.20;99.90;;;;;;5045671;28;19913;-82
2022/04/22 02:01:11;;;;;;;;;;;6.20;99.90;;;;;;5058091;28;19924;-82
2022/04/22 02:03:36;;;;;;;;;;;6.20;99.90;;;;;;5057093;28;19916;-82
2022/04/22 02:06:02;;;;;;;;;;;6.10;99.90;;;;;;5058473;28;20502;-83
2022/04/22 02:08:28;;;;;;;;;;;6.10;99.90;;;;;;5057488;28;19951;-83
2022/04/22 02:10:54;;;;;;;;;;;6.10;99.90;;;;;;5057885;28;19917;-82
2022/04/22 02:13:21;;;;;;;;;;;6.10;99.90;;;;;;5061293;28;19928;-82
2022/04/22 02:15:46;;;;;;;;;;;6.00;99.90;;;;;;5060057;28;19955;-82
2022/04/22 02:18:12;;;;;;;;;;;6.00;99.90;;;;;;5070218;28;19909;-82
2022/04/22 02:20:37;;;;;;;;;;;6.00;99.90;;;;;;5058817;28;20425;-82
2022/04/22 02:23:03;;;;;;;;;;;5.90;99.90;;;;;;5062087;28;19955;-82
2022/04/22 02:25:28;;;;;;;;;;;5.90;99.90;;;;;;5076423;28;19916;-82
2022/04/22 02:30:38;;;;;;;;;;;5.90;99.90;;;;;;5079805;28;19939;-82
2022/04/22 02:33:04;;;;;;;;;;;5.90;99.90;;;;;;5079175;28;19917;-82
2022/04/22 02:35:29;;;;;;;;;;;5.90;99.90;;;;;;5060190;28;19917;-81
2022/04/22 02:37:55;;;;;;;;;;;5.90;99.90;;;;;;5062803;28;19917;-82
2022/04/22 02:45:49;;;;;;;;;;;5.90;99.90;;;;;;5081422;28;20424;-82
2022/04/22 02:48:14;;;;;;;;;;;5.90;99.90;;;;;;5078559;28;19912;-82
2022/04/22 02:50:40;;;;;;;;;;;5.90;99.90;;;;;;5064203;28;19916;-82
2022/04/22 02:53:05;;;;;;;;;;;5.90;99.90;;;;;;5079588;28;19920;-82
2022/04/22 02:55:31;;;;;;;;;;;5.90;99.90;;;;;;5063571;28;20299;-82
2022/04/22 02:57:56;;;;;;;;;;;5.80;99.90;;;;;;5077716;28;19913;-82
2022/04/22 03:00:23;;;;;;;;;;;5.80;99.90;;;;;;5078988;28;19920;-82
2022/04/22 03:02:48;;;;;;;;;;;5.80;99.90;;;;;;5061971;28;20030;-82
2022/04/22 03:05:14;;;;;;;;;;;5.80;99.90;;;;;;5079730;28;19947;-81
2022/04/22 03:07:39;;;;;;;;;;;5.80;99.90;;;;;;5074290;28;19923;-82
2022/04/22 03:10:05;;;;;;;;;;;5.70;99.90;;;;;;5075210;28;20435;-81
2022/04/22 03:12:31;;;;;;;;;;;5.70;99.90;;;;;;5076659;28;19988;-81
2022/04/22 03:14:56;;;;;;;;;;;5.70;99.90;;;;;;5059885;28;20023;-82
2022/04/22 03:17:22;;;;;;;;;;;5.70;99.90;;;;;;5059403;28;19925;-82
2022/04/22 03:19:48;;;;;;;;;;;5.80;99.90;;;;;;5059858;28;19913;-81
2022/04/22 03:22:13;;;;;;;;;;;5.80;99.90;;;;;;5076761;28;20444;-82
2022/04/22 03:24:39;;;;;;;;;;;5.80;99.90;;;;;;5074747;28;19981;-81
2022/04/22 03:27:04;;;;;;;;;;;5.80;99.90;;;;;;5062865;28;19924;-82
2022/04/22 03:29:30;;;;;;;;;;;5.80;99.90;;;;;;5064031;28;19966;-82
2022/04/22 03:31:55;;;;;;;;;;;5.80;99.90;;;;;;5058876;28;20278;-82
2022/04/22 03:34:22;;;;;;;;;;;5.80;99.90;;;;;;5053786;28;19921;-82
2022/04/22 03:36:49;;;;;;;;;;;5.90;99.90;;;;;;5038910;28;19919;-83
2022/04/22 03:39:15;;;;;;;;;;;5.90;99.90;;;;;;5052070;28;19923;-82
2022/04/22 03:41:40;;;;;;;;;;;5.90;99.90;;;;;;5072662;28;20430;-83
2022/04/22 03:44:06;;;;;;;;;;;5.90;99.90;;;;;;5055845;28;20345;-84
2022/04/22 03:46:32;;;;;;;;;;;5.90;99.90;;;;;;5055971;28;19928;-84
2022/04/22 03:49:00;;;;;;;;;;;5.80;99.90;;;;;;5055478;28;19927;-83
2022/04/22 03:51:27;;;;;;;;;;;5.80;99.90;;;;;;5056196;28;20324;-83
2022/04/22 03:53:53;;;;;;;;;;;5.80;99.90;;;;;;5055145;28;19924;-84
2022/04/22 03:59:03;;;;;;;;;;;5.80;99.90;;;;;;5072704;28;20029;-83
2022/04/22 04:01:29;;;;;;;;;;;5.80;99.90;;;;;;5072811;28;19913;-83
2022/04/22 04:03:54;;;;;;;;;;;5.80;99.90;;;;;;5055356;28;20260;-83
2022/04/22 04:06:20;;;;;;;;;;;5.80;99.90;;;;;;5055410;28;20362;-83
2022/04/22 04:15:57;;;;;;;;;;;5.90;99.90;;;;;;5055481;28;19967;-83
2022/04/22 04:16:59;;;;;;;;;;;5.90;99.90;;;;;;5073262;28;19958;-83
2022/04/22 04:24:53;;;;;;;;;;;5.80;99.90;;;;;;5077327;28;19954;-83
2022/04/22 04:27:19;;;;;;;;;;;5.80;99.90;;;;;;5058036;28;19917;-84
2022/04/22 04:29:45;;;;;;;;;;;5.80;99.90;;;;;;5075222;28;20450;-83
2022/04/22 04:32:10;;;;;;;;;;;5.70;99.90;;;;;;5057389;28;20391;-84
2022/04/22 04:34:36;;;;;;;;;;;5.80;99.90;;;;;;5058293;28;20424;-84
2022/04/22 04:37:01;;;;;;;;;;;5.70;99.90;;;;;;5076008;28;19915;-84
2022/04/22 04:39:27;;;;;;;;;;;5.80;99.90;;;;;;5063085;28;20359;-84
2022/04/22 04:41:54;;;;;;;;;;;5.80;99.90;;;;;;5065388;28;19962;-84
2022/04/22 04:44:19;;;;;;;;;;;5.90;99.90;;;;;;5082169;28;19996;-84
2022/04/22 04:46:44;;;;;;;;;;;5.90;99.90;;;;;;5065804;28;19916;-84
2022/04/22 04:49:10;;;;;;;;;;;5.90;99.90;;;;;;5066709;28;19956;-84
2022/04/22 04:51:35;;;;;;;;;;;5.90;99.90;;;;;;5065900;28;19952;-84
2022/04/22 04:54:01;;;;;;;;;;;6.00;99.90;;;;;;5063707;28;20327;-84
2022/04/22 04:56:27;;;;;;;;;;;6.00;99.90;;;;;;5067334;28;19921;-84
2022/04/22 04:58:52;;;;;;;;;;;6.00;99.90;;;;;;5082955;28;19969;-84
2022/04/22 05:01:18;;;;;;;;;;;6.10;99.90;;;;;;5064742;28;19916;-84
2022/04/22 05:03:43;;;;;;;;;;;6.10;99.90;;;;;;5066267;28;19913;-83
2022/04/22 05:06:09;;;;;;;;;;;6.10;99.90;;;;;;5066986;28;19931;-84
2022/04/22 05:08:34;;;;;;;;;;;6.10;99.90;;;;;;5067263;28;19948;-84
2022/04/22 05:11:00;;;;;;;;;;;6.20;99.90;;;;;;5082875;28;19954;-84
2022/04/22 05:13:25;;;;;;;;;;;6.30;99.90;;;;;;5068230;23;20394;-84
2022/04/22 05:15:53;;;;;;;;;;;6.30;99.90;;;;;;5039821;28;19960;-84
2022/04/22 05:18:18;;;;;;;;;;;6.30;99.90;;;;;;5026775;28;19923;-84
2022/04/22 05:20:44;;;;;;;;;;;6.40;99.90;;;;;;5040026;28;19948;-84
2022/04/22 05:23:09;;;;;;;;;;;6.40;99.90;;;;;;5055987;28;20378;-84
2022/04/22 05:25:35;;;;;;;;;;;6.50;99.90;;;;;;5039663;28;19970;-84
2022/04/22 05:28:00;;;;;;;;;;;6.50;99.90;;;;;;5039889;28;20335;-84
2022/04/22 05:33:10;;;;;;;;;;;6.60;99.90;;;;;;5057278;28;19931;-84
2022/04/22 05:35:36;;;;;;;;;;;6.70;99.90;;;;;;5056731;28;19950;-84
2022/04/22 05:38:03;;;;;;;;;;;6.80;99.90;;;;;;5039313;28;19924;-84
2022/04/22 05:40:30;;;;;;;;;;;6.80;99.90;;;;;;5056211;28;19982;-84
2022/04/22 05:42:56;;;;;;;;;;;6.90;99.90;;;;;;5054772;28;19916;-85
2022/04/22 05:45:22;;;;;;;;;;;6.90;99.90;;;;;;5055395;28;19913;-84
2022/04/22 05:47:48;;;;;;;;;;;6.90;99.90;;;;;;5055315;28;19913;-84
2022/04/22 05:50:14;;;;;;;;;;;6.90;99.90;;;;;;5055669;28;19916;-84
2022/04/22 05:52:40;;;;;;;;;;;7.00;99.90;;;;;;5039759;28;19944;-84
2022/04/22 05:55:07;;;;;;;;;;;7.10;99.90;;;;;;5039725;28;19917;-85
2022/04/22 05:57:33;;;;;;;;;;;7.10;99.90;;;;;;5037611;28;19916;-84
2022/04/22 06:00:07;;;;;;;;;;;7.20;99.90;;;;;;5054322;28;19975;-83
2022/04/22 06:02:32;;;;;;;;;;;7.30;99.90;;;;;;5047590;28;19923;-84
2022/04/22 06:04:58;;;;;;;;;;;7.50;99.90;;;;;;5055011;28;19913;-83
2022/04/22 06:07:23;;;;;;;;;;;7.60;99.90;;;;;;5038048;28;19924;-84
2022/04/22 06:12:33;;;;;;;;;;;7.80;99.90;;;;;;5044683;28;19931;-84
2022/04/22 06:15:04;;;;;;;;;;;8.10;99.90;;;;;;5057577;28;19952;-84
2022/04/22 06:17:30;;;;;;;;;;;8.20;99.90;;;;;;5057369;28;19955;-84
2022/04/22 06:19:56;;;;;;;;;;;8.40;99.90;;;;;;5057075;28;19913;-84
2022/04/22 06:22:22;;;;;;;;;;;8.50;99.90;;;;;;5040709;28;19921;-84
2022/04/22 06:24:48;;;;;;;;;;;8.70;99.90;;;;;;5057970;28;19916;-84
2022/04/22 06:27:13;;;;;;;;;;;8.70;99.90;;;;;;5057367;28;20358;-84
2022/04/22 06:29:39;;;;;;;;;;;8.70;99.90;;;;;;5057198;28;19964;-84
2022/04/22 06:32:04;;;;;;;;;;;8.70;99.90;;;;;;5040700;28;19917;-84
2022/04/22 06:34:30;;;;;;;;;;;8.70;99.90;;;;;;5041179;28;19921;-81
2022/04/22 06:36:56;;;;;;;;;;;8.70;99.90;;;;;;5056709;28;19917;-82
2022/04/22 06:39:22;;;;;;;;;;;8.80;99.90;;;;;;5057442;28;19967;-82
2022/04/22 06:47:16;;;;;;;;;;;9.00;99.90;;;;;;5058059;28;19920;-82
2022/04/22 06:49:42;;;;;;;;;;;9.00;99.90;;;;;;5040758;28;20279;-82
2022/04/22 06:52:08;;;;;;;;;;;9.10;99.90;;;;;;5039853;28;19921;-82
2022/04/22 06:54:33;;;;;;;;;;;9.10;99.90;;;;;;5039829;28;20391;-82
2022/04/22 06:57:00;;;;;;;;;;;9.20;99.90;;;;;;5035148;28;19917;-85
2022/04/22 06:59:26;;;;;;;;;;;9.20;99.90;;;;;;5038388;28;19986;-83
2022/04/22 07:01:52;;;;;;;;;;;9.30;99.90;;;;;;5039952;28;20228;-82
2022/04/22 07:04:17;;;;;;;;;;;9.30;99.90;;;;;;5040144;28;20015;-82
2022/04/22 07:06:43;;;;;;;;;;;9.40;99.90;;;;;;5055215;28;19917;-82
2022/04/22 07:09:10;;;;;;;;;;;9.60;99.90;;;;;;5040996;28;19924;-82
2022/04/22 07:11:37;;;;;;;;;;;9.70;99.90;;;;;;5056411;28;19920;-82
2022/04/22 07:14:02;;;;;;;;;;;9.80;99.90;;;;;;5040373;28;19921;-82
2022/04/22 07:16:28;;;;;;;;;;;9.80;99.90;;;;;;5058021;28;20042;-83
2022/04/22 07:18:54;;;;;;;;;;;9.90;99.90;;;;;;5040492;28;19917;-82
2022/04/22 07:21:20;;;;;;;;;;;9.90;99.90;;;;;;5056405;28;20008;-83
2022/04/22 07:23:45;;;;;;;;;;;10.00;99.90;;;;;;5039022;28;20002;-83
2022/04/22 07:26:11;;;;;;;;;;;10.10;99.90;;;;;;5038760;28;19912;-82
2022/04/22 07:28:40;;;;;;;;;;;10.20;99.90;;;;;;5056173;28;19921;-82
2022/04/22 07:31:09;;;;;;;;;;;10.40;99.90;;;;;;5055706;28;19913;-82
2022/04/22 07:33:34;;;;;;;;;;;10.60;99.90;;;;;;5039879;28;19921;-82
2022/04/22 07:36:00;;;;;;;;;;;10.70;99.90;;;;;;5056603;28;19939;-83
2022/04/22 07:38:26;;;;;;;;;;;10.80;99.90;;;;;;5040358;28;19920;-82
2022/04/22 07:40:52;;;;;;;;;;;10.90;99.90;;;;;;5039572;28;20034;-83
2022/04/22 07:48:52;;;;;;;;;;;11.10;99.90;;;;;;5057423;28;19954;-82
2022/04/22 07:51:18;;;;;;;;;;;11.20;99.90;;;;;;5055708;28;20436;-83
2022/04/22 07:53:44;;;;;;;;;;;11.10;99.90;;;;;;5055333;28;19959;-83
2022/04/22 07:56:09;;;;;;;;;;;11.10;99.90;;;;;;5038415;28;19924;-83
2022/04/22 07:58:36;;;;;;;;;;;11.20;99.90;;;;;;5038295;28;20074;-83
2022/04/22 08:01:02;;;;;;;;;;;11.30;99.90;;;;;;5037819;28;19913;-83
2022/04/22 08:03:28;;;;;;;;;;;11.40;99.90;;;;;;5058627;28;19919;-82
2022/04/22 08:05:53;;;;;;;;;;;11.50;99.90;;;;;;5043164;28;20414;-82
2022/04/22 08:08:19;;;;;;;;;;;11.60;99.90;;;;;;5041791;28;20368;-82
2022/04/22 08:10:45;;;;;;;;;;;11.70;99.90;;;;;;5042461;28;19920;-82
2022/04/22 08:13:10;;;;;;;;;;;11.80;99.90;;;;;;5058883;28;20221;-81
2022/04/22 08:15:42;;;;;;;;;;;12.10;99.90;;;;;;5059108;28;19956;-83
2022/04/22 08:18:13;;;;;;;;;;;12.40;99.90;;;;;;5037768;28;19923;-82
2022/04/22 08:20:39;;;;;;;;;;;12.40;97.20;;;;;;5054845;28;19920;-82
2022/04/22 08:23:06;;;;;;;;;;;12.20;98.60;;;;;;5038275;28;19913;-82
2022/04/22 08:25:31;;;;;;;;;;;11.90;98.00;;;;;;5038252;28;20328;-82
2022/04/22 08:27:57;;;;;;;;;;;12.00;99.90;;;;;;5056118;28;19909;-82
2022/04/22 08:30:22;;;;;;;;;;;12.30;99.90;;;;;;5055957;28;19915;-82
2022/04/22 08:32:48;;;;;;;;;;;12.50;99.90;;;;;;5055420;28;19984;-82
2022/04/22 08:35:14;;;;;;;;;;;12.60;98.90;;;;;;5039483;28;19920;-82
2022/04/22 08:37:42;;;;;;;;;;;12.60;99.80;;;;;;5055965;28;19976;-82
2022/04/22 08:40:08;;;;;;;;;;;12.60;98.00;;;;;;5039091;28;19920;-82
2022/04/22 08:42:38;;;;;;;;;;;12.60;97.30;;;;;;5038424;28;19917;-82
2022/04/22 08:45:04;;;;;;;;;;;12.70;99.70;;;;;;5038718;28;19964;-82
2022/04/22 08:50:16;;;;;;;;;;;12.70;98.10;;;;;;5056238;28;20291;-82
2022/04/22 08:52:43;;;;;;;;;;;12.90;96.90;;;;;;5055904;28;19912;-82
2022/04/22 08:55:09;;;;;;;;;;;13.00;95.60;;;;;;5037781;28;19923;-82
2022/04/22 08:57:34;;;;;;;;;;;12.90;96.90;;;;;;5054528;28;19935;-82
2022/04/22 09:00:01;;;;;;;;;;;12.60;95.70;;;;;;5053856;28;19913;-82
2022/04/22 09:02:27;;;;;;;;;;;12.60;97.80;;;;;;5038742;28;19913;-82
2022/04/22 09:04:52;;;;;;;;;;;12.40;98.40;;;;;;5054418;28;20426;-82
2022/04/22 09:07:19;;;;;;;;;;;12.40;99.80;;;;;;5032885;28;20007;-82
2022/04/22 09:09:49;;;;;;;;;;;12.50;99.90;;;;;;5054194;28;20359;-82
2022/04/22 09:12:17;;;;;;;;;;;12.60;96.40;;;;;;5038384;28;20286;-82
2022/04/22 09:14:47;;;;;;;;;;;12.70;94.60;;;;;;5038300;28;20322;-82
2022/04/22 09:17:17;;;;;;;;;;;12.80;93.60;;;;;;5038452;28;19920;-82
2022/04/22 09:19:44;;;;;;;;;;;12.90;97.20;;;;;;5054483;28;20298;-82
2022/04/22 09:22:09;;;;;;;;;;;12.90;98.10;;;;;;5036895;28;19967;-82
2022/04/22 09:24:53;;;;;;;;;;;12.90;94.60;;;;;;5054423;28;19909;-82
2022/04/22 09:27:20;;;;;;;;;;;12.90;95.20;;;;;;5054768;28;19920;-82
2022/04/22 09:29:53;;;;;;;;;;;12.80;97.70;;;;;;5037486;28;19912;-83
2022/04/22 09:32:26;;;;;;;;;;;12.80;94.10;;;;;;5037194;28;19913;-82
2022/04/22 09:34:52;;;;;;;;;;;12.70;94.70;;;;;;5055012;28;19913;-82
2022/04/22 09:42:48;;;;;;;;;;;12.80;98.00;;;;;;5056014;28;19919;-82
2022/04/22 09:45:14;;;;;;;;;;;12.90;95.60;;;;;;5054689;28;19912;-82
2022/04/22 09:47:40;;;;;;;;;;;13.00;95.20;;;;;;5037223;28;20003;-82
2022/04/22 09:50:14;;;;;;;;;;;13.20;95.20;;;;;;5054482;28;20512;-82
2022/04/22 09:52:43;;;;;;;;;;;13.30;95.40;;;;;;5038313;28;19913;-82
2022/04/22 09:55:13;;;;;;;;;;;13.30;91.50;;;;;;5053919;28;19913;-82
2022/04/22 09:57:49;;;;;;;;;;;13.40;95.30;;;;;;5038011;28;20406;-82
2022/04/22 10:00:15;;;;;;;;;;;13.40;90.00;;;;;;5054492;28;20007;-82
2022/04/22 10:02:42;;;;;;;;;;;13.30;92.30;;;;;;5037951;28;19917;-82
2022/04/22 10:05:09;;;;;;;;;;;13.20;90.90;;;;;;5038346;28;19988;-82
2022/04/22 10:07:35;;;;;;;;;;;13.20;93.10;;;;;;5054626;28;20039;-82
2022/04/22 10:10:02;;;;;;;;;;;13.30;96.40;;;;;;5037943;28;19936;-82
2022/04/22 10:12:29;;;;;;;;;;;13.50;93.40;;;;;;5038255;28;20279;-82
2022/04/22 10:14:57;;;;;;;;;;;13.60;90.00;;;;;;5055480;28;19913;-82
2022/04/22 10:17:23;;;;;;;;;;;13.60;90.70;;;;;;5038102;28;19913;-82
2022/04/22 10:19:49;;;;;;;;;;;13.60;92.50;;;;;;5037606;28;19921;-82
2022/04/22 10:22:17;;;;;;;;;;;13.80;93.10;;;;;;5053943;28;19909;-83
2022/04/22 10:24:43;;;;;;;;;;;13.90;90.50;;;;;;5038204;28;19920;-82
2022/04/22 10:27:10;;;;;;;;;;;14.00;87.80;;;;;;5054487;28;19909;-82
2022/04/22 10:29:39;;;;;;;;;;;14.20;93.10;;;;;;5038264;28;19913;-82
2022/04/22 10:32:05;;;;;;;;;;;14.30;83.20;;;;;;5054801;28;19913;-82
2022/04/22 10:34:39;;;;;;;;;;;14.50;80.10;;;;;;5042767;28;19923;-82
2022/04/22 10:37:05;;;;;;;;;;;14.60;80.90;;;;;;5058795;28;19908;-82
2022/04/22 10:39:37;;;;;;;;;;;14.70;88.70;;;;;;5058121;28;19909;-82
2022/04/22 10:42:08;;;;;;;;;;;14.80;92.40;;;;;;5058066;28;19912;-82
2022/04/22 10:47:36;;;;;;;;;;;15.00;87.60;;;;;;5059931;28;19980;-83
2022/04/22 10:50:21;;;;;;;;;;;15.10;82.60;;;;;;5057520;28;19909;-82
2022/04/22 10:53:02;;;;;;;;;;;15.30;80.60;;;;;;5058283;28;19913;-82
2022/04/22 10:55:28;;;;;;;;;;;15.40;78.80;;;;;;5058309;28;19912;-82
2022/04/22 10:58:12;;;;;;;;;;;15.50;70.00;;;;;;5058013;28;20003;-82
2022/04/22 11:00:39;;;;;;;;;;;15.50;73.40;;;;;;5058056;28;19908;-82
2022/04/22 11:03:09;;;;;;;;;;;15.50;70.60;;;;;;5041743;28;20046;-82
2022/04/22 11:05:36;;;;;;;;;;;15.40;77.20;;;;;;5057384;28;19916;-82
2022/04/22 11:08:04;;;;;;;;;;;15.50;74.50;;;;;;5057106;28;19908;-82
2022/04/22 11:10:56;;;;;;;;;;;15.40;70.90;;;;;;5057612;28;19955;-82
2022/04/22 11:13:35;;;;;;;;;;;15.60;75.80;;;;;;5072269;22;19920;-83
2022/04/22 11:16:05;;;;;;;;;;;15.60;82.20;;;;;;5074646;28;19917;-84
2022/04/22 11:18:31;;;;;;;;;;;15.60;72.60;;;;;;5074971;28;19919;-84
2022/04/22 11:21:03;;;;;;;;;;;15.60;69.30;;;;;;5074912;28;20497;-83
2022/04/22 11:23:40;;;;;;;;;;;15.60;71.20;;;;;;5075262;28;19919;-84
2022/04/22 11:26:06;;;;;;;;;;;15.60;62.90;;;;;;5058586;28;19917;-84
2022/04/22 11:28:36;;;;;;;;;;;15.70;64.30;;;;;;5057738;28;19920;-84
2022/04/22 11:31:03;;;;;;;;;;;15.80;65.80;;;;;;5058563;28;19913;-84
2022/04/22 11:33:33;;;;;;;;;;;15.90;66.20;;;;;;5074491;28;19913;-84
2022/04/22 11:36:03;;;;;;;;;;;15.90;71.00;;;;;;5073646;28;20017;-83
2022/04/22 11:38:31;;;;;;;;;;;15.80;68.40;;;;;;5073601;28;20317;-84
2022/04/22 11:40:56;;;;;;;;;;;15.90;71.20;;;;;;5074279;28;19958;-83
2022/04/22 11:43:22;;;;;;;;;;;15.90;70.00;;;;;;5056899;28;19920;-83
2022/04/22 11:45:48;;;;;;;;;;;15.90;70.20;;;;;;5055993;28;19919;-84
2022/04/22 11:48:14;;;;;;;;;;;15.90;71.90;;;;;;5055936;28;19912;-83
2022/04/22 11:50:41;;;;;;;;;;;16.00;78.80;;;;;;5072628;28;19919;-83
2022/04/22 11:53:29;;;;;;;;;;;16.00;73.00;;;;;;5072936;28;19916;-83
2022/04/22 11:55:55;;;;;;;;;;;16.20;70.50;;;;;;5072810;28;19908;-83
2022/04/22 11:58:23;;;;;;;;;;;16.30;65.70;;;;;;5073116;28;19908;-84
2022/04/22 12:06:18;;;;;;;;;;;16.20;69.90;;;;;;5074814;28;19954;-83
2022/04/22 12:08:53;;;;;;;;;;;16.30;64.70;;;;;;5056361;28;19916;-83
2022/04/22 12:11:18;;;;;;;;;;;16.30;64.80;;;;;;5072677;28;19908;-84
2022/04/22 12:13:45;;;;;;;;;;;16.40;64.60;;;;;;5055841;28;19928;-83
2022/04/22 12:16:11;;;;;;;;;;;16.50;68.50;;;;;;5072952;28;19912;-83
2022/04/22 12:18:37;;;;;;;;;;;16.50;65.70;;;;;;5057311;28;19917;-84
2022/04/22 12:21:06;;;;;;;;;;;16.60;64.20;;;;;;5073544;28;19915;-83
2022/04/22 12:23:42;;;;;;;;;;;16.60;63.40;;;;;;5072567;28;19915;-84
2022/04/22 12:26:20;;;;;;;;;;;16.60;65.10;;;;;;5090425;28;19916;-84
2022/04/22 12:29:00;;;;;;;;;;;16.50;62.30;;;;;;5073328;28;19920;-84
2022/04/22 12:31:27;;;;;;;;;;;16.50;65.10;;;;;;5072684;28;20160;-83
2022/04/22 12:33:56;;;;;;;;;;;16.60;62.10;;;;;;5090094;28;19912;-84
2022/04/22 12:36:22;;;;;;;;;;;16.60;59.10;;;;;;5072359;28;19914;-83
2022/04/22 12:38:47;;;;;;;;;;;16.60;59.60;;;;;;5073766;28;19912;-83
2022/04/22 12:41:25;;;;;;;;;;;16.40;59.60;;;;;;5073836;28;19922;-84
2022/04/22 12:43:52;;;;;;;;;;;16.30;60.70;;;;;;5074181;28;20264;-84
2022/04/22 12:52:08;;;;;;;;;;;16.20;60.30;;;;;;5075177;28;19915;-84
2022/04/22 12:54:34;;;;;;;;;;;16.40;63.30;;;;;;5073399;28;19912;-83
2022/04/22 12:56:59;;;;;;;;;;;16.50;61.70;;;;;;5062150;28;20287;-83
2022/04/22 12:59:39;;;;;;;;;;;16.80;62.00;;;;;;5051538;28;19960;-84
2022/04/22 13:02:06;;;;;;;;;;;17.00;57.80;;;;;;5069835;28;19923;-83
2022/04/22 13:04:31;;;;;;;;;;;16.90;56.70;;;;;;5073473;28;19915;-84
2022/04/22 13:06:56;;;;;;;;;;;16.50;56.20;;;;;;5074921;28;20313;-84
2022/04/22 13:09:23;;;;;;;;;;;16.20;59.80;;;;;;5075461;28;20033;-84
2022/04/22 13:11:51;;;;;;;;;;;16.30;59.80;;;;;;5076044;28;19919;-84
2022/04/22 13:14:17;;;;;;;;;;;16.40;59.00;;;;;;5075921;28;20015;-84
2022/04/22 13:16:43;;;;;;;;;;;16.50;59.40;;;;;;5076019;28;19943;-85
2022/04/22 13:19:08;;;;;;;;;;;16.40;58.20;;;;;;5075985;28;20307;-85
2022/04/22 13:21:34;;;;;;;;;;;16.60;57.70;;;;;;5073637;28;20314;-84
2022/04/22 13:24:01;;;;;;;;;;;16.80;57.00;;;;;;5074628;28;19991;-84
2022/04/22 13:26:26;;;;;;;;;;;17.10;56.80;;;;;;5074892;28;19927;-84
2022/04/22 13:28:54;;;;;;;;;;;17.50;55.60;;;;;;5075161;28;19913;-84
2022/04/22 13:31:20;;;;;;;;;;;17.80;55.80;;;;;;5074757;28;19993;-84
2022/04/22 13:33:45;;;;;;;;;;;18.00;54.50;;;;;;5057937;28;19959;-84
2022/04/22 13:36:11;;;;;;;;;;;18.10;53.90;;;;;;5058691;28;19912;-84
2022/04/22 13:38:37;;;;;;;;;;;18.30;52.80;;;;;;5058816;28;19924;-84
2022/04/22 13:41:04;;;;;;;;;;;18.50;54.50;;;;;;5060168;28;19913;-84
2022/04/22 13:43:33;;;;;;;;;;;18.30;53.60;;;;;;5075204;28;19919;-84
2022/04/22 13:54:15;;;;;;;;;;;18.00;55.20;;;;;;5073110;28;19924;-84
2022/04/22 13:56:41;;;;;;;;;;;18.30;53.30;;;;;;5054458;28;20378;-84
2022/04/22 13:59:06;;;;;;;;;;;18.50;52.80;;;;;;5070919;28;19912;-84
2022/04/22 14:01:32;;;;;;;;;;;18.60;53.00;;;;;;5054272;28;19916;-84
2022/04/22 14:03:57;;;;;;;;;;;18.60;51.10;;;;;;5054813;28;19920;-84
2022/04/22 14:06:23;;;;;;;;;;;18.50;53.30;;;;;;5054196;28;20417;-83
2022/04/22 14:08:49;;;;;;;;;;;18.20;52.20;;;;;;5071481;28;19908;-84
2022/04/22 14:11:14;;;;;;;;;;;18.00;53.70;;;;;;5055477;28;19920;-84
2022/04/22 14:13:40;;;;;;;;;;;17.80;52.70;;;;;;5054803;28;20386;-83
2022/04/22 14:16:06;;;;;;;;;;;17.60;53.40;;;;;;5055018;28;20268;-83
2022/04/22 14:18:33;;;;;;;;;;;17.50;53.40;;;;;;5055487;28;19916;-84
2022/04/22 14:20:59;;;;;;;;;;;17.60;55.00;;;;;;5071996;28;19924;-84
2022/04/22 14:23:24;;;;;;;;;;;18.00;56.00;;;;;;5073103;28;19908;-83
2022/04/22 14:25:50;;;;;;;;;;;18.30;51.80;;;;;;5071783;28;19920;-85
2022/04/22 14:28:16;;;;;;;;;;;18.70;51.80;;;;;;5053989;28;19913;-84
2022/04/22 14:30:44;;;;;;;;;;;19.00;51.20;;;;;;5071459;28;19912;-83
2022/04/22 14:33:09;;;;;;;;;;;18.90;49.10;;;;;;5088704;28;19908;-83
2022/04/22 14:35:35;;;;;;;;;;;18.80;49.30;;;;;;5088943;28;19909;-84
2022/04/22 14:38:00;;;;;;;;;;;18.50;50.20;;;;;;5071233;28;19920;-84
2022/04/22 14:40:26;;;;;;;;;;;18.40;50.60;;;;;;5071712;28;19908;-84
2022/04/22 14:42:51;;;;;;;;;;;18.40;52.90;;;;;;5071883;28;20346;-84
2022/04/22 14:45:17;;;;;;;;;;;18.30;50.50;;;;;;5071881;28;19913;-84
2022/04/22 14:47:43;;;;;;;;;;;18.00;52.00;;;;;;5071393;28;19952;-83
2022/04/22 14:50:08;;;;;;;;;;;18.00;52.60;;;;;;5071680;28;19916;-84
2022/04/22 14:52:34;;;;;;;;;;;17.90;52.20;;;;;;5088419;28;19916;-84
2022/04/22 14:55:00;;;;;;;;;;;17.80;53.90;;;;;;5071450;28;19921;-84
2022/04/22 14:57:25;;;;;;;;;;;17.70;53.10;;;;;;5055575;28;19948;-85
2022/04/22 14:59:52;;;;;;;;;;;17.80;55.90;;;;;;5053123;28;19912;-84
2022/04/22 15:02:17;;;;;;;;;;;17.80;55.20;;;;;;5055216;28;19920;-85
2022/04/22 15:04:43;;;;;;;;;;;17.80;54.40;;;;;;5056517;28;19925;-85
2022/04/22 15:07:08;;;;;;;;;;;17.70;51.80;;;;;;5055464;28;19991;-86
2022/04/22 15:09:34;;;;;;;;;;;17.50;52.80;;;;;;5040821;28;19924;-85
2022/04/22 15:11:59;;;;;;;;;;;17.30;54.30;;;;;;5057408;28;20351;-85
2022/04/22 15:14:25;;;;;;;;;;;17.20;54.90;;;;;;5056733;28;19931;-84
2022/04/22 15:16:51;;;;;;;;;;;17.30;55.40;;;;;;5073058;28;19913;-84
2022/04/22 15:24:45;;;;;;;;;;;17.40;53.00;;;;;;5059762;28;19959;-85
2022/04/22 15:27:10;;;;;;;;;;;17.30;54.10;;;;;;5045786;28;19913;-84
2022/04/22 15:29:38;;;;;;;;;;;17.30;53.70;;;;;;5056025;28;20015;-84
2022/04/22 15:32:04;;;;;;;;;;;17.40;54.00;;;;;;5060599;28;19931;-84
2022/04/22 15:34:29;;;;;;;;;;;17.70;54.60;;;;;;5078945;28;19916;-84
2022/04/22 15:36:55;;;;;;;;;;;17.90;52.80;;;;;;5061402;28;19924;-85
2022/04/22 15:39:20;;;;;;;;;;;18.20;53.30;;;;;;5078646;28;19916;-85
2022/04/22 15:41:46;;;;;;;;;;;18.30;50.90;;;;;;5060157;28;19920;-84
2022/04/22 15:44:11;;;;;;;;;;;18.30;51.70;;;;;;5060909;28;19962;-84